createdAt,value
2018-12-03T00:00:58.775Z,12.40
2018-12-03T00:01:58.777Z,14.50
2018-12-03T00:02:58.742Z,13.00
2018-12-03T00:03:58.656Z,16.40
2018-12-03T00:04:58.664Z,14.20
2018-12-03T00:05:58.537Z,14.70
2018-12-03T00:06:58.535Z,15.50
2018-12-03T00:07:58.540Z,17.10
2018-12-03T00:08:58.416Z,16.80
2018-12-03T00:09:58.416Z,16.20
2018-12-03T00:10:58.378Z,15.60
2018-12-03T00:11:58.294Z,14.50
2018-12-03T00:12:58.295Z,14.20
2018-12-03T00:13:58.176Z,14.10
2018-12-03T00:14:58.174Z,13.60
2018-12-03T00:15:58.174Z,12.00
2018-12-03T00:16:58.053Z,13.50
2018-12-03T00:17:58.051Z,12.80
2018-12-03T00:18:58.016Z,11.30
2018-12-03T00:19:57.933Z,11.10
2018-12-03T00:20:57.932Z,10.80
2018-12-03T00:21:57.815Z,10.30
2018-12-03T00:22:57.812Z,10.50
2018-12-03T00:23:57.812Z,11.20
2018-12-03T00:24:57.695Z,10.20
2018-12-03T00:25:57.691Z,11.30
2018-12-03T00:26:57.689Z,13.40
2018-12-03T00:27:57.570Z,12.20
2018-12-03T00:28:57.571Z,11.70
2018-12-03T00:29:57.451Z,10.80
2018-12-03T00:30:57.453Z,10.60
2018-12-03T00:31:57.450Z,10.70
2018-12-03T00:32:57.333Z,11.10
2018-12-03T00:33:57.327Z,10.10
2018-12-03T00:34:57.327Z,9.80
2018-12-03T00:35:57.209Z,9.40
2018-12-03T00:36:57.210Z,8.60
2018-12-03T00:37:57.087Z,8.20
2018-12-03T00:38:57.091Z,9.50
2018-12-03T00:39:57.093Z,8.70
2018-12-03T00:40:56.974Z,9.30
2018-12-03T00:41:56.969Z,9.80
2018-12-03T00:42:56.967Z,10.80
2018-12-03T00:43:56.849Z,12.20
2018-12-03T00:44:56.847Z,10.90
2018-12-03T00:45:56.730Z,9.90
2018-12-03T00:46:56.731Z,10.20
2018-12-03T00:47:56.727Z,10.20
2018-12-03T00:48:56.606Z,10.00
2018-12-03T00:49:56.605Z,9.80
2018-12-03T00:50:56.611Z,10.90
2018-12-03T00:51:56.490Z,11.40
2018-12-03T00:52:56.486Z,10.00
2018-12-03T00:53:56.364Z,9.30
2018-12-03T00:54:56.367Z,9.00
2018-12-03T00:55:56.364Z,8.20
2018-12-03T00:56:56.247Z,8.70
2018-12-03T00:57:56.244Z,8.70
2018-12-03T00:58:56.247Z,8.40
2018-12-03T00:59:56.125Z,8.50
2018-12-03T01:00:56.122Z,8.60
2018-12-03T01:01:56.002Z,8.10
2018-12-03T01:02:56.003Z,8.50
2018-12-03T01:03:56.005Z,8.70
2018-12-03T01:04:55.884Z,8.90
2018-12-03T01:05:55.884Z,8.00
2018-12-03T01:06:55.883Z,10.10
2018-12-03T01:07:55.763Z,8.10
2018-12-03T01:08:55.760Z,7.60
2018-12-03T01:09:55.656Z,8.70
2018-12-03T01:10:55.640Z,8.50
2018-12-03T01:11:55.640Z,8.50
2018-12-03T01:12:55.524Z,7.90
2018-12-03T01:13:55.521Z,7.80
2018-12-03T01:14:55.522Z,9.00
2018-12-03T01:15:55.400Z,7.70
2018-12-03T01:16:55.403Z,7.40
2018-12-03T01:17:55.281Z,7.90
2018-12-03T01:18:55.283Z,8.70
2018-12-03T01:19:55.281Z,8.80
2018-12-03T01:20:55.162Z,7.40
2018-12-03T01:21:55.158Z,8.30
2018-12-03T01:22:55.161Z,7.10
2018-12-03T01:23:55.040Z,7.20
2018-12-03T01:24:55.037Z,7.40
2018-12-03T01:25:54.920Z,8.50
2018-12-03T01:26:54.918Z,8.40
2018-12-03T01:27:54.918Z,7.00
2018-12-03T01:28:54.800Z,7.70
2018-12-03T01:29:54.800Z,7.70
2018-12-03T01:30:54.797Z,7.20
2018-12-03T01:31:54.678Z,7.20
2018-12-03T01:32:54.682Z,8.20
2018-12-03T01:33:54.576Z,7.60
2018-12-03T01:34:54.562Z,8.60
2018-12-03T01:35:54.560Z,7.70
2018-12-03T01:36:54.444Z,7.90
2018-12-03T01:37:54.435Z,8.60
2018-12-03T01:38:54.446Z,7.00
2018-12-03T01:39:54.317Z,7.90
2018-12-03T01:40:54.316Z,10.50
2018-12-03T01:41:54.193Z,7.20
2018-12-03T01:42:54.194Z,9.00
2018-12-03T01:43:54.194Z,7.30
2018-12-03T01:44:54.075Z,7.00
2018-12-03T01:45:54.078Z,7.70
2018-12-03T01:46:54.078Z,7.70
2018-12-03T01:47:53.953Z,7.70
2018-12-03T01:48:53.956Z,6.20
2018-12-03T01:49:53.838Z,8.60
2018-12-03T01:50:53.833Z,5.90
2018-12-03T01:51:53.833Z,8.90
2018-12-03T01:52:53.712Z,9.50
2018-12-03T01:53:53.720Z,9.30
2018-12-03T01:54:53.712Z,6.60
2018-12-03T01:55:53.589Z,11.10
2018-12-03T01:56:53.594Z,11.00
2018-12-03T01:57:53.469Z,11.30
2018-12-03T01:58:53.471Z,15.30
2018-12-03T01:59:53.471Z,9.90
2018-12-03T02:00:53.355Z,9.70
2018-12-03T02:01:53.349Z,11.60
2018-12-03T02:02:53.351Z,11.80
2018-12-03T02:03:53.230Z,12.80
2018-12-03T02:04:53.234Z,11.00
2018-12-03T02:05:53.111Z,10.50
2018-12-03T02:06:53.115Z,11.40
2018-12-03T02:07:53.109Z,9.80
2018-12-03T02:08:52.989Z,7.20
2018-12-03T02:09:53.031Z,8.70
2018-12-03T02:10:52.989Z,7.00
2018-12-03T02:11:52.869Z,10.30
2018-12-03T02:12:52.869Z,8.20
2018-12-03T02:13:52.750Z,9.20
2018-12-03T02:14:52.747Z,6.60
2018-12-03T02:15:52.746Z,8.60
2018-12-03T02:16:52.629Z,6.60
2018-12-03T02:17:52.626Z,7.40
2018-12-03T02:18:52.630Z,8.10
2018-12-03T02:19:52.513Z,10.70
2018-12-03T02:20:52.515Z,11.90
2018-12-03T02:21:52.389Z,8.20
2018-12-03T02:22:52.388Z,10.40
2018-12-03T02:23:52.384Z,9.00
2018-12-03T02:24:52.265Z,7.50
2018-12-03T02:25:52.264Z,8.00
2018-12-03T02:26:52.265Z,8.50
2018-12-03T02:27:52.144Z,10.00
2018-12-03T02:28:52.143Z,9.00
2018-12-03T02:29:52.028Z,11.90
2018-12-03T02:30:52.025Z,9.00
2018-12-03T02:31:52.022Z,8.50
2018-12-03T02:32:51.918Z,8.80
2018-12-03T02:33:51.904Z,10.30
2018-12-03T02:34:51.902Z,9.90
2018-12-03T02:35:51.785Z,9.20
2018-12-03T02:36:51.780Z,10.70
2018-12-03T02:37:51.661Z,10.80
2018-12-03T02:38:51.661Z,11.70
2018-12-03T02:39:51.665Z,11.30
2018-12-03T02:40:51.541Z,12.00
2018-12-03T02:41:51.540Z,8.90
2018-12-03T02:42:51.542Z,10.40
2018-12-03T02:43:51.418Z,7.90
2018-12-03T02:44:51.419Z,10.50
2018-12-03T02:45:51.301Z,10.40
2018-12-03T02:46:51.303Z,16.50
2018-12-03T02:47:51.313Z,10.70
2018-12-03T02:48:51.181Z,8.70
2018-12-03T02:49:51.179Z,8.50
2018-12-03T02:50:51.177Z,12.30
2018-12-03T02:51:51.059Z,10.30
2018-12-03T02:52:51.059Z,10.80
2018-12-03T02:53:50.938Z,10.60
2018-12-03T02:54:50.937Z,9.80
2018-12-03T02:55:50.936Z,12.50
2018-12-03T02:56:50.827Z,10.50
2018-12-03T02:57:50.817Z,9.80
2018-12-03T02:58:50.817Z,12.70
2018-12-03T02:59:50.699Z,12.20
2018-12-03T03:00:50.699Z,12.40
2018-12-03T03:01:50.576Z,13.10
2018-12-03T03:02:50.577Z,12.70
2018-12-03T03:03:50.575Z,11.40
2018-12-03T03:04:50.453Z,13.40
2018-12-03T03:05:50.455Z,13.20
2018-12-03T03:06:50.464Z,12.50
2018-12-03T03:07:50.336Z,12.10
2018-12-03T03:08:50.335Z,11.70
2018-12-03T03:09:50.298Z,14.30
2018-12-03T03:10:50.215Z,11.70
2018-12-03T03:11:50.216Z,12.00
2018-12-03T03:12:50.095Z,11.10
2018-12-03T03:13:50.101Z,14.30
2018-12-03T03:14:50.095Z,10.50
2018-12-03T03:15:49.973Z,13.70
2018-12-03T03:16:49.977Z,14.60
2018-12-03T03:17:49.941Z,12.90
2018-12-03T03:18:49.887Z,13.80
2018-12-03T03:19:49.854Z,13.10
2018-12-03T03:20:49.829Z,12.20
2018-12-03T03:21:49.731Z,13.60
2018-12-03T03:22:49.742Z,14.00
2018-12-03T03:23:49.613Z,17.20
2018-12-03T03:24:49.610Z,12.30
2018-12-03T03:25:49.579Z,14.70
2018-12-03T03:26:49.491Z,12.60
2018-12-03T03:27:49.489Z,12.80
2018-12-03T03:28:49.368Z,12.50
2018-12-03T03:29:49.369Z,14.70
2018-12-03T03:30:49.370Z,13.40
2018-12-03T03:31:49.322Z,13.80
2018-12-03T03:32:49.258Z,12.80
2018-12-03T03:33:49.217Z,15.20
2018-12-03T03:34:49.127Z,11.70
2018-12-03T03:35:49.128Z,16.30
2018-12-03T03:36:49.008Z,10.70
2018-12-03T03:37:49.005Z,11.80
2018-12-03T03:38:49.007Z,11.00
2018-12-03T03:39:48.887Z,12.20
2018-12-03T03:40:48.886Z,11.00
2018-12-03T03:41:48.852Z,11.20
2018-12-03T03:42:48.770Z,9.70
2018-12-03T03:43:48.772Z,11.30
2018-12-03T03:44:48.646Z,12.10
2018-12-03T03:45:48.647Z,9.50
2018-12-03T03:46:48.645Z,9.50
2018-12-03T03:47:48.526Z,10.70
2018-12-03T03:48:48.528Z,8.50
2018-12-03T03:49:48.523Z,10.40
2018-12-03T03:50:48.410Z,11.10
2018-12-03T03:51:48.408Z,10.00
2018-12-03T03:52:48.285Z,10.70
2018-12-03T03:53:48.284Z,11.60
2018-12-03T03:54:48.284Z,9.30
2018-12-03T03:55:48.165Z,11.20
2018-12-03T03:56:48.163Z,7.90
2018-12-03T03:57:48.163Z,7.70
2018-12-03T03:58:48.042Z,10.40
2018-12-03T03:59:48.043Z,8.40
2018-12-03T04:00:47.922Z,8.80
2018-12-03T04:01:47.922Z,10.40
2018-12-03T04:02:47.945Z,9.10
2018-12-03T04:03:47.803Z,5.60
2018-12-03T04:04:47.805Z,9.50
2018-12-03T04:05:47.803Z,8.50
2018-12-03T04:06:47.684Z,6.20
2018-12-03T04:07:47.692Z,10.20
2018-12-03T04:08:47.561Z,6.90
2018-12-03T04:09:47.561Z,8.30
2018-12-03T04:10:47.563Z,8.70
2018-12-03T04:11:47.442Z,7.40
2018-12-03T04:12:47.450Z,6.80
2018-12-03T04:13:47.446Z,7.20
2018-12-03T04:14:47.321Z,18.60
2018-12-03T04:15:47.319Z,14.40
2018-12-03T04:16:47.200Z,11.70
2018-12-03T04:17:47.197Z,8.90
2018-12-03T04:18:47.200Z,7.90
2018-12-03T04:19:47.080Z,8.50
2018-12-03T04:20:47.077Z,10.10
2018-12-03T04:21:47.078Z,9.30
2018-12-03T04:22:46.963Z,9.10
2018-12-03T04:23:46.960Z,9.40
2018-12-03T04:24:46.838Z,7.60
2018-12-03T04:25:46.839Z,7.70
2018-12-03T04:26:46.836Z,6.40
2018-12-03T04:27:46.727Z,5.30
2018-12-03T04:28:46.719Z,7.30
2018-12-03T04:29:46.716Z,7.60
2018-12-03T04:30:46.598Z,6.80
2018-12-03T04:31:46.598Z,6.70
2018-12-03T04:32:46.476Z,7.90
2018-12-03T04:33:46.476Z,6.90
2018-12-03T04:34:46.481Z,8.30
2018-12-03T04:35:46.358Z,8.10
2018-12-03T04:36:46.354Z,6.10
2018-12-03T04:37:46.354Z,7.90
2018-12-03T04:38:46.234Z,6.70
2018-12-03T04:39:46.240Z,6.00
2018-12-03T04:40:46.118Z,9.80
2018-12-03T04:41:46.119Z,6.50
2018-12-03T04:42:46.113Z,7.40
2018-12-03T04:43:45.995Z,4.90
2018-12-03T04:44:45.999Z,6.10
2018-12-03T04:45:45.994Z,7.00
2018-12-03T04:46:45.874Z,5.40
2018-12-03T04:47:45.874Z,7.20
2018-12-03T04:48:45.752Z,7.40
2018-12-03T04:49:45.754Z,7.90
2018-12-03T04:50:45.753Z,6.40
2018-12-03T04:51:45.633Z,5.00
2018-12-03T04:52:45.638Z,5.70
2018-12-03T04:53:45.634Z,7.00
2018-12-03T04:54:45.512Z,5.50
2018-12-03T04:55:45.511Z,7.10
2018-12-03T04:56:45.406Z,6.10
2018-12-03T04:57:45.398Z,8.00
2018-12-03T04:58:45.392Z,5.00
2018-12-03T04:59:45.271Z,5.40
2018-12-03T05:00:45.286Z,6.40
2018-12-03T05:01:45.269Z,4.90
2018-12-03T05:02:45.149Z,7.60
2018-12-03T05:03:45.152Z,6.90
2018-12-03T05:04:45.031Z,5.20
2018-12-03T05:05:45.028Z,5.50
2018-12-03T05:06:45.037Z,6.50
2018-12-03T05:07:44.916Z,7.20
2018-12-03T05:08:44.907Z,9.10
2018-12-03T05:09:44.908Z,6.50
2018-12-03T05:10:44.794Z,5.90
2018-12-03T05:11:44.794Z,7.00
2018-12-03T05:12:44.674Z,6.30
2018-12-03T05:13:44.669Z,7.80
2018-12-03T05:14:44.667Z,5.90
2018-12-03T05:15:44.551Z,8.30
2018-12-03T05:16:44.547Z,8.60
2018-12-03T05:17:44.549Z,8.50
2018-12-03T05:18:44.429Z,7.40
2018-12-03T05:19:44.434Z,7.70
2018-12-03T05:20:44.311Z,6.90
2018-12-03T05:21:44.316Z,7.80
2018-12-03T05:22:44.315Z,6.50
2018-12-03T05:23:44.187Z,7.00
2018-12-03T05:24:44.186Z,8.00
2018-12-03T05:25:44.186Z,8.00
2018-12-03T05:26:44.547Z,9.60
2018-12-03T05:27:44.070Z,8.50
2018-12-03T05:28:43.944Z,8.10
2018-12-03T05:29:43.943Z,9.20
2018-12-03T05:30:43.944Z,6.70
2018-12-03T05:31:43.825Z,10.70
2018-12-03T05:32:43.823Z,8.60
2018-12-03T05:33:43.787Z,9.40
2018-12-03T05:34:43.705Z,6.50
2018-12-03T05:35:43.710Z,12.00
2018-12-03T05:36:43.582Z,10.20
2018-12-03T05:37:43.633Z,9.80
2018-12-03T05:38:43.583Z,10.30
2018-12-03T05:39:43.467Z,10.40
2018-12-03T05:40:43.461Z,10.30
2018-12-03T05:41:43.459Z,8.00
2018-12-03T05:42:43.340Z,9.60
2018-12-03T05:43:43.340Z,9.00
2018-12-03T05:44:43.220Z,9.30
2018-12-03T05:45:43.220Z,11.60
2018-12-03T05:46:43.221Z,12.20
2018-12-03T05:47:43.102Z,9.20
2018-12-03T05:48:43.099Z,9.20
2018-12-03T05:49:43.063Z,9.60
2018-12-03T05:50:42.983Z,7.90
2018-12-03T05:51:42.981Z,8.50
2018-12-03T05:52:42.867Z,10.20
2018-12-03T05:53:42.858Z,13.20
2018-12-03T05:54:42.859Z,9.90
2018-12-03T05:55:42.738Z,9.40
2018-12-03T05:56:42.741Z,11.60
2018-12-03T05:57:42.701Z,8.70
2018-12-03T05:58:42.619Z,10.70
2018-12-03T05:59:42.619Z,11.50
2018-12-03T06:00:42.501Z,8.80
2018-12-03T06:01:42.497Z,9.10
2018-12-03T06:02:42.499Z,7.70
2018-12-03T06:03:42.375Z,10.00
2018-12-03T06:04:42.380Z,12.30
2018-12-03T06:05:42.259Z,11.70
2018-12-03T06:06:42.257Z,9.80
2018-12-03T06:07:42.260Z,7.50
2018-12-03T06:08:42.135Z,11.20
2018-12-03T06:09:42.135Z,9.70
2018-12-03T06:10:42.136Z,9.60
2018-12-03T06:11:42.021Z,8.40
2018-12-03T06:12:42.014Z,8.40
2018-12-03T06:13:41.893Z,7.60
2018-12-03T06:14:41.895Z,8.30
2018-12-03T06:15:41.893Z,8.50
2018-12-03T06:16:41.773Z,9.70
2018-12-03T06:17:41.773Z,7.70
2018-12-03T06:18:41.778Z,8.20
2018-12-03T06:19:41.653Z,9.30
2018-12-03T06:20:41.658Z,8.10
2018-12-03T06:21:41.531Z,9.40
2018-12-03T06:22:41.536Z,9.30
2018-12-03T06:23:41.534Z,11.00
2018-12-03T06:24:41.412Z,8.70
2018-12-03T06:25:41.419Z,8.60
2018-12-03T06:26:41.412Z,9.20
2018-12-03T06:27:44.910Z,8.30
2018-12-03T06:28:41.293Z,9.90
2018-12-03T06:29:41.172Z,9.80
2018-12-03T06:30:41.170Z,9.70
2018-12-03T06:31:41.174Z,8.00
2018-12-03T06:32:41.053Z,11.80
2018-12-03T06:33:41.050Z,10.60
2018-12-03T06:34:41.053Z,10.00
2018-12-03T06:35:40.930Z,9.30
2018-12-03T06:36:40.933Z,11.30
2018-12-03T06:37:40.808Z,13.50
2018-12-03T06:38:40.812Z,11.30
2018-12-03T06:39:40.810Z,12.30
2018-12-03T06:40:40.687Z,10.10
2018-12-03T06:41:40.690Z,10.90
2018-12-03T06:42:40.688Z,9.80
2018-12-03T06:43:40.571Z,10.80
2018-12-03T06:44:40.567Z,11.20
2018-12-03T06:45:40.452Z,11.00
2018-12-03T06:46:40.446Z,10.80
2018-12-03T06:47:40.456Z,11.30
2018-12-03T06:48:40.329Z,10.40
2018-12-03T06:49:40.414Z,10.20
2018-12-03T06:50:40.331Z,10.00
2018-12-03T06:51:40.208Z,12.10
2018-12-03T06:52:40.206Z,8.10
2018-12-03T06:53:40.087Z,14.20
2018-12-03T06:54:40.083Z,9.60
2018-12-03T06:55:40.086Z,10.70
2018-12-03T06:56:39.969Z,11.30
2018-12-03T06:57:39.970Z,11.60
2018-12-03T06:58:39.927Z,10.40
2018-12-03T06:59:39.842Z,11.50
2018-12-03T07:00:39.843Z,12.40
2018-12-03T07:01:39.726Z,10.10
2018-12-03T07:02:39.725Z,12.90
2018-12-03T07:03:39.722Z,9.60
2018-12-03T07:04:39.604Z,9.70
2018-12-03T07:05:39.607Z,9.40
2018-12-03T07:06:39.484Z,7.60
2018-12-03T07:07:39.481Z,13.10
2018-12-03T07:08:39.483Z,11.90
2018-12-03T07:09:39.361Z,12.30
2018-12-03T07:10:39.361Z,13.60
2018-12-03T07:11:39.361Z,13.10
2018-12-03T07:12:39.242Z,9.90
2018-12-03T07:13:39.240Z,10.30
2018-12-03T07:14:39.132Z,13.00
2018-12-03T07:15:39.120Z,10.60
2018-12-03T07:16:39.122Z,14.90
2018-12-03T07:17:39.006Z,9.10
2018-12-03T07:18:39.004Z,14.00
2018-12-03T07:19:39.008Z,11.60
2018-12-03T07:20:38.882Z,14.40
2018-12-03T07:21:38.884Z,10.90
2018-12-03T07:22:38.762Z,10.80
2018-12-03T07:23:38.762Z,14.70
2018-12-03T07:24:38.765Z,10.20
2018-12-03T07:25:38.644Z,12.10
2018-12-03T07:26:38.642Z,12.20
2018-12-03T07:27:38.643Z,12.60
2018-12-03T07:28:38.518Z,10.10
2018-12-03T07:29:38.517Z,13.70
2018-12-03T07:30:38.399Z,13.00
2018-12-03T07:31:38.397Z,11.70
2018-12-03T07:32:38.396Z,9.40
2018-12-03T07:33:38.276Z,12.80
2018-12-03T07:34:38.293Z,13.40
2018-12-03T07:35:38.281Z,14.20
2018-12-03T07:36:38.158Z,13.60
2018-12-03T07:37:38.156Z,17.60
2018-12-03T07:38:38.037Z,14.30
2018-12-03T07:39:38.046Z,12.70
2018-12-03T07:40:38.056Z,11.80
2018-12-03T07:41:37.985Z,11.10
2018-12-03T07:42:37.917Z,10.90
2018-12-03T07:43:37.910Z,12.30
2018-12-03T07:44:37.796Z,15.20
2018-12-03T07:45:37.795Z,10.50
2018-12-03T07:46:37.674Z,12.10
2018-12-03T07:47:37.675Z,12.10
2018-12-03T07:48:37.678Z,12.30
2018-12-03T07:49:37.552Z,11.40
2018-12-03T07:50:37.555Z,11.30
2018-12-03T07:51:37.515Z,10.80
2018-12-03T07:52:37.433Z,11.00
2018-12-03T07:53:37.435Z,15.10
2018-12-03T07:54:37.311Z,10.20
2018-12-03T07:55:37.319Z,13.70
2018-12-03T07:56:37.312Z,11.50
2018-12-03T07:57:37.193Z,15.10
2018-12-03T07:58:37.193Z,17.10
2018-12-03T07:59:37.073Z,16.60
2018-12-03T08:00:37.070Z,15.50
2018-12-03T08:01:37.070Z,14.50
2018-12-03T08:02:36.954Z,17.20
2018-12-03T08:03:36.951Z,17.00
2018-12-03T08:04:36.956Z,17.20
2018-12-03T08:05:36.879Z,14.90
2018-12-03T08:06:36.830Z,19.20
2018-12-03T08:07:36.716Z,18.40
2018-12-03T08:08:36.709Z,16.20
2018-12-03T08:09:36.711Z,18.80
2018-12-03T08:10:36.595Z,21.50
2018-12-03T08:11:36.588Z,18.10
2018-12-03T08:12:36.592Z,19.80
2018-12-03T08:13:36.469Z,18.80
2018-12-03T08:14:36.469Z,18.40
2018-12-03T08:15:36.350Z,19.30
2018-12-03T08:16:36.349Z,13.80
2018-12-03T08:17:36.348Z,15.80
2018-12-03T08:18:36.228Z,17.00
2018-12-03T08:19:36.229Z,16.50
2018-12-03T08:20:36.229Z,12.90
2018-12-03T08:21:36.108Z,10.90
2018-12-03T08:22:36.105Z,15.60
2018-12-03T08:23:35.989Z,16.50
2018-12-03T08:24:35.987Z,11.70
2018-12-03T08:25:35.985Z,14.60
2018-12-03T08:26:35.870Z,17.00
2018-12-03T08:27:35.866Z,17.80
2018-12-03T08:28:35.855Z,20.20
2018-12-03T08:29:35.743Z,15.00
2018-12-03T08:30:35.746Z,15.30
2018-12-03T08:31:35.625Z,14.80
2018-12-03T08:32:35.622Z,14.80
2018-12-03T08:33:35.623Z,14.30
2018-12-03T08:34:35.505Z,14.40
2018-12-03T08:35:35.505Z,16.30
2018-12-03T08:36:35.392Z,14.00
2018-12-03T08:37:35.384Z,16.80
2018-12-03T08:38:35.386Z,15.50
2018-12-03T08:39:35.268Z,17.60
2018-12-03T08:40:35.265Z,16.90
2018-12-03T08:41:35.263Z,15.10
2018-12-03T08:42:35.141Z,20.70
2018-12-03T08:43:35.150Z,17.70
2018-12-03T08:44:35.023Z,19.90
2018-12-03T08:45:35.023Z,19.30
2018-12-03T08:46:35.022Z,14.30
2018-12-03T08:47:34.905Z,19.60
2018-12-03T08:48:34.921Z,15.60
2018-12-03T08:49:34.900Z,18.00
2018-12-03T08:50:34.782Z,17.10
2018-12-03T08:51:34.780Z,21.10
2018-12-03T08:52:34.659Z,20.10
2018-12-03T08:53:34.664Z,19.70
2018-12-03T08:54:34.662Z,17.60
2018-12-03T08:55:34.542Z,19.50
2018-12-03T08:56:34.544Z,21.60
2018-12-03T08:57:34.540Z,20.00
2018-12-03T08:58:34.419Z,17.70
2018-12-03T08:59:34.421Z,18.50
2018-12-03T09:00:34.298Z,21.20
2018-12-03T09:01:34.302Z,17.10
2018-12-03T09:02:34.298Z,16.30
2018-12-03T09:03:34.178Z,23.70
2018-12-03T09:04:34.177Z,19.30
2018-12-03T09:05:34.177Z,20.20
2018-12-03T09:06:34.057Z,18.80
2018-12-03T09:07:34.058Z,23.70
2018-12-03T09:08:33.936Z,17.90
2018-12-03T09:09:33.934Z,18.70
2018-12-03T09:10:33.937Z,18.50
2018-12-03T09:11:33.815Z,21.20
2018-12-03T09:12:33.814Z,19.00
2018-12-03T09:13:33.812Z,21.20
2018-12-03T09:14:33.694Z,19.90
2018-12-03T09:15:33.695Z,20.50
2018-12-03T09:16:33.576Z,17.50
2018-12-03T09:17:33.574Z,23.60
2018-12-03T09:18:33.575Z,18.80
2018-12-03T09:19:33.453Z,16.00
2018-12-03T09:20:33.454Z,20.30
2018-12-03T09:21:33.418Z,19.40
2018-12-03T09:22:33.332Z,19.90
2018-12-03T09:23:33.362Z,17.50
2018-12-03T09:24:33.215Z,18.80
2018-12-03T09:25:33.212Z,19.40
2018-12-03T09:26:33.212Z,21.40
2018-12-03T09:27:33.092Z,16.80
2018-12-03T09:28:33.091Z,20.80
2018-12-03T09:29:33.055Z,20.70
2018-12-03T09:30:32.974Z,20.80
2018-12-03T09:31:32.969Z,22.10
2018-12-03T09:32:32.857Z,22.90
2018-12-03T09:33:32.854Z,22.90
2018-12-03T09:34:32.851Z,18.70
2018-12-03T09:35:32.735Z,23.30
2018-12-03T09:36:32.730Z,22.20
2018-12-03T09:37:32.619Z,23.40
2018-12-03T09:38:32.609Z,19.50
2018-12-03T09:39:32.610Z,21.80
2018-12-03T09:40:32.491Z,24.30
2018-12-03T09:41:32.495Z,18.30
2018-12-03T09:42:32.495Z,20.30
2018-12-03T09:43:32.371Z,20.50
2018-12-03T09:44:32.367Z,22.70
2018-12-03T09:45:32.250Z,21.90
2018-12-03T09:46:32.247Z,18.80
2018-12-03T09:47:32.247Z,20.60
2018-12-03T09:48:32.127Z,19.20
2018-12-03T09:49:32.127Z,23.20
2018-12-03T09:50:32.130Z,21.10
2018-12-03T09:51:32.007Z,18.70
2018-12-03T09:52:32.015Z,19.90
2018-12-03T09:53:31.900Z,19.40
2018-12-03T09:54:31.888Z,18.90
2018-12-03T09:55:31.887Z,17.50
2018-12-03T09:56:31.765Z,21.40
2018-12-03T09:57:31.765Z,22.50
2018-12-03T09:58:31.768Z,21.40
2018-12-03T09:59:31.649Z,23.50
2018-12-03T10:00:31.644Z,23.50
2018-12-03T10:01:31.528Z,19.30
2018-12-03T10:02:31.532Z,20.10
2018-12-03T10:03:31.527Z,23.40
2018-12-03T10:04:31.406Z,22.60
2018-12-03T10:05:31.403Z,19.50
2018-12-03T10:06:31.403Z,24.00
2018-12-03T10:07:31.285Z,19.70
2018-12-03T10:08:31.285Z,19.90
2018-12-03T10:09:31.163Z,17.80
2018-12-03T10:10:31.165Z,22.30
2018-12-03T10:11:31.165Z,18.40
2018-12-03T10:12:31.044Z,18.40
2018-12-03T10:13:31.041Z,23.20
2018-12-03T10:14:31.046Z,17.80
2018-12-03T10:15:30.923Z,19.90
2018-12-03T10:16:30.924Z,23.60
2018-12-03T10:17:30.802Z,19.30
2018-12-03T10:18:30.804Z,21.00
2018-12-03T10:19:30.800Z,20.90
2018-12-03T10:20:30.685Z,20.90
2018-12-03T10:21:30.683Z,21.90
2018-12-03T10:22:30.684Z,18.00
2018-12-03T10:23:30.560Z,16.30
2018-12-03T10:24:30.560Z,19.70
2018-12-03T10:25:30.446Z,17.60
2018-12-03T10:26:30.439Z,16.70
2018-12-03T10:27:30.444Z,18.40
2018-12-03T10:28:30.321Z,18.20
2018-12-03T10:29:30.328Z,16.40
2018-12-03T10:30:30.321Z,17.40
2018-12-03T10:31:30.196Z,16.50
2018-12-03T10:32:30.204Z,19.90
2018-12-03T10:33:30.078Z,19.70
2018-12-03T10:34:30.080Z,18.60
2018-12-03T10:35:30.077Z,18.80
2018-12-03T10:36:29.957Z,19.00
2018-12-03T10:37:29.961Z,16.70
2018-12-03T10:38:29.960Z,16.70
2018-12-03T10:39:29.836Z,20.00
2018-12-03T10:40:29.836Z,13.50
2018-12-03T10:41:29.717Z,20.30
2018-12-03T10:42:29.724Z,16.30
2018-12-03T10:43:29.720Z,16.30
2018-12-03T10:44:29.596Z,17.80
2018-12-03T10:45:29.597Z,18.80
2018-12-03T10:46:29.605Z,18.50
2018-12-03T10:47:29.475Z,15.10
2018-12-03T10:48:29.474Z,19.20
2018-12-03T10:49:29.355Z,21.40
2018-12-03T10:50:29.360Z,16.60
2018-12-03T10:51:29.356Z,18.20
2018-12-03T10:52:29.241Z,17.70
2018-12-03T10:53:29.236Z,14.70
2018-12-03T10:54:29.233Z,14.90
2018-12-03T10:55:29.113Z,18.90
2018-12-03T10:56:29.116Z,19.10
2018-12-03T10:57:28.996Z,18.00
2018-12-03T10:58:28.995Z,14.00
2018-12-03T10:59:28.996Z,15.90
2018-12-03T11:00:28.874Z,14.90
2018-12-03T11:01:28.871Z,14.20
2018-12-03T11:02:28.881Z,16.60
2018-12-03T11:03:28.763Z,15.10
2018-12-03T11:04:28.752Z,16.50
2018-12-03T11:05:28.630Z,14.10
2018-12-03T11:06:28.631Z,12.30
2018-12-03T11:07:28.640Z,15.40
2018-12-03T11:08:29.231Z,19.80
2018-12-03T11:09:33.186Z,16.50
2018-12-03T11:10:28.512Z,14.50
2018-12-03T11:11:28.389Z,18.90
2018-12-03T11:12:28.394Z,13.60
2018-12-03T11:13:28.271Z,15.50
2018-12-03T11:14:28.267Z,18.30
2018-12-03T11:15:28.268Z,16.50
2018-12-03T11:16:28.147Z,15.40
2018-12-03T11:17:28.151Z,16.70
2018-12-03T11:18:28.148Z,14.70
2018-12-03T11:19:28.035Z,19.70
2018-12-03T11:20:28.033Z,16.60
2018-12-03T11:21:27.994Z,18.50
2018-12-03T11:22:27.911Z,15.80
2018-12-03T11:23:27.910Z,13.90
2018-12-03T11:24:27.789Z,19.00
2018-12-03T11:25:27.787Z,17.70
2018-12-03T11:26:27.788Z,21.60
2018-12-03T11:27:27.670Z,18.70
2018-12-03T11:28:27.666Z,22.00
2018-12-03T11:29:27.628Z,19.60
2018-12-03T11:30:27.549Z,18.80
2018-12-03T11:31:27.546Z,17.50
2018-12-03T11:32:27.429Z,18.90
2018-12-03T11:33:27.423Z,15.60
2018-12-03T11:34:27.430Z,20.90
2018-12-03T11:35:27.306Z,18.80
2018-12-03T11:36:27.305Z,16.70
2018-12-03T11:37:27.266Z,19.50
2018-12-03T11:38:27.183Z,18.50
2018-12-03T11:39:27.184Z,15.80
2018-12-03T11:40:27.068Z,18.80
2018-12-03T11:41:27.067Z,18.30
2018-12-03T11:42:27.062Z,19.60
2018-12-03T11:43:26.941Z,19.00
2018-12-03T11:44:26.941Z,21.50
2018-12-03T11:45:26.940Z,13.10
2018-12-03T11:46:26.824Z,18.60
2018-12-03T11:47:26.825Z,21.80
2018-12-03T11:48:26.702Z,12.80
2018-12-03T11:49:26.700Z,20.50
2018-12-03T11:50:26.699Z,17.60
2018-12-03T11:51:26.579Z,15.60
2018-12-03T11:52:26.590Z,16.00
2018-12-03T11:53:26.581Z,19.20
2018-12-03T11:54:26.458Z,15.30
2018-12-03T11:55:26.463Z,17.80
2018-12-03T11:56:26.339Z,19.10
2018-12-03T11:57:26.338Z,17.20
2018-12-03T11:58:26.344Z,18.20
2018-12-03T11:59:26.221Z,19.00
2018-12-03T12:00:26.222Z,18.30
2018-12-03T12:01:26.221Z,16.80
2018-12-03T12:02:26.102Z,17.80
2018-12-03T12:03:26.101Z,18.20
2018-12-03T12:04:25.986Z,16.50
2018-12-03T12:05:25.979Z,13.90
2018-12-03T12:06:25.980Z,17.40
2018-12-03T12:07:25.867Z,14.40
2018-12-03T12:08:25.863Z,16.80
2018-12-03T12:09:25.862Z,20.20
2018-12-03T12:10:25.736Z,19.10
2018-12-03T12:11:25.741Z,17.60
2018-12-03T12:12:25.622Z,15.30
2018-12-03T12:13:25.618Z,14.40
2018-12-03T12:14:25.620Z,16.90
2018-12-03T12:15:25.495Z,15.20
2018-12-03T12:16:25.499Z,15.10
2018-12-03T12:17:25.495Z,17.40
2018-12-03T12:18:25.376Z,17.00
2018-12-03T12:19:25.379Z,15.70
2018-12-03T12:20:25.253Z,15.10
2018-12-03T12:21:25.257Z,15.70
2018-12-03T12:22:25.254Z,16.80
2018-12-03T12:23:25.137Z,17.50
2018-12-03T12:24:25.132Z,15.70
2018-12-03T12:25:25.132Z,23.20
2018-12-03T12:26:25.015Z,18.40
2018-12-03T12:27:25.013Z,18.40
2018-12-03T12:28:24.894Z,17.10
2018-12-03T12:29:24.892Z,16.80
2018-12-03T12:30:24.892Z,17.40
2018-12-03T12:31:24.772Z,13.90
2018-12-03T12:32:24.775Z,16.30
2018-12-03T12:33:24.772Z,16.80
2018-12-03T12:34:24.649Z,17.50
2018-12-03T12:35:24.656Z,22.20
2018-12-03T12:36:24.613Z,12.80
2018-12-03T12:37:24.532Z,13.70
2018-12-03T12:38:24.533Z,16.60
2018-12-03T12:39:24.418Z,14.60
2018-12-03T12:40:24.413Z,17.00
2018-12-03T12:41:24.409Z,14.40
2018-12-03T12:42:24.334Z,18.90
2018-12-03T12:43:24.288Z,14.00
2018-12-03T12:44:24.251Z,16.00
2018-12-03T12:45:24.167Z,18.20
2018-12-03T12:46:24.167Z,16.30
2018-12-03T12:47:24.053Z,15.40
2018-12-03T12:48:24.051Z,16.50
2018-12-03T12:49:24.049Z,16.40
2018-12-03T12:50:23.933Z,15.40
2018-12-03T12:51:23.930Z,14.50
2018-12-03T12:52:23.929Z,16.00
2018-12-03T12:53:23.806Z,12.80
2018-12-03T12:54:23.806Z,12.70
2018-12-03T12:55:23.683Z,15.90
2018-12-03T12:56:23.695Z,11.90
2018-12-03T12:57:23.683Z,14.30
2018-12-03T12:58:23.571Z,18.20
2018-12-03T12:59:23.570Z,15.20
2018-12-03T13:00:23.565Z,11.10